Airfield :
LOGIN :

Register | Disclaimer

   EN    FR    IT 

 










Legend :    VFR   Marginal VFR   IFR   Intensive IFR   Very Intensive IFR
Visi :
Ceiling :
>= 8 km
>= 3000ft
5 to 8 km
1000 to 3000 ft
1500m to 5 km
500 to 1000 ft
800 to 1500m
200 to 500 ft
< 800m
< 200 ft
Symbols :   Thunderstorms  Fog  Heavy snow  Heavy precipitations  Wind > 20 kt
SIGMETs :     Misc.  Thunderstorms  Icing  Turbulence  Mountain Waves  Volcanic Ashes






- Airport Elevation : 1895 ft


LSMM - Meiringen

EXPIRED METARs :
  • 031520Z AUTO VRB02KT 9999NDV NCD 29/16 Q1019 RMK
  • 032320Z AUTO VRB02KT 9999NDV FEW150 16/16 Q1021 RMK
  • 032250Z AUTO VRB02KT 9999NDV SCT140 17/15 Q1021 RMK
  • 032150Z AUTO 08005KT 030V130 9999NDV -SHRA FEW026 SCT100 17/16 Q1022 RMK
  • 032120Z AUTO 06010KT 020V110 9999NDV FEW081 SCT098 18/14 Q1024 RERA RMK

Expired Forecast.



MET'MAP, your aeronautical weather chart ! - Copyright ORBIFLY December 2007 - Disclaimer

ORBIFLY MET'MAP TEAM :

Programming & Development : Alexandra Zaïnal
Original concept : Baudouin d'Aumeries
Technical & hardware support : Manuel Goepfert
Assistance : Marc-Olivier Méhu




SOURCES & CREDITS :

   NOAA